sensor_id;sensor_type;location;lat;lon;timestamp;P1;durP1;ratioP1;P2;durP2;ratioP2
23449;SDS011;11897;45.438;12.128;2022-11-20T00:00:03;1.63;;;1.43;;
23449;SDS011;11897;45.438;12.128;2022-11-20T00:02:32;3.67;;;1.57;;
23449;SDS011;11897;45.438;12.128;2022-11-20T00:04:59;2.40;;;1.37;;
23449;SDS011;11897;45.438;12.128;2022-11-20T00:07:25;2.17;;;1.10;;
23449;SDS011;11897;45.438;12.128;2022-11-20T00:09:52;1.27;;;1.00;;
23449;SDS011;11897;45.438;12.128;2022-11-20T00:12:18;2.07;;;1.27;;
23449;SDS011;11897;45.438;12.128;2022-11-20T00:14:48;1.50;;;1.10;;
23449;SDS011;11897;45.438;12.128;2022-11-20T00:17:14;0.97;;;0.80;;
23449;SDS011;11897;45.438;12.128;2022-11-20T00:19:41;1.23;;;0.90;;
23449;SDS011;11897;45.438;12.128;2022-11-20T00:22:08;2.40;;;1.03;;
23449;SDS011;11897;45.438;12.128;2022-11-20T00:24:34;1.87;;;1.20;;
23449;SDS011;11897;45.438;12.128;2022-11-20T00:27:01;1.50;;;1.30;;
23449;SDS011;11897;45.438;12.128;2022-11-20T00:29:27;2.20;;;1.10;;
23449;SDS011;11897;45.438;12.128;2022-11-20T00:31:55;2.17;;;1.33;;
23449;SDS011;11897;45.438;12.128;2022-11-20T00:34:22;1.70;;;1.00;;
23449;SDS011;11897;45.438;12.128;2022-11-20T00:36:48;1.67;;;0.80;;
23449;SDS011;11897;45.438;12.128;2022-11-20T00:39:15;2.37;;;1.30;;
23449;SDS011;11897;45.438;12.128;2022-11-20T00:41:42;2.20;;;1.20;;
23449;SDS011;11897;45.438;12.128;2022-11-20T00:44:08;0.90;;;0.87;;
23449;SDS011;11897;45.438;12.128;2022-11-20T00:46:35;3.40;;;1.57;;
23449;SDS011;11897;45.438;12.128;2022-11-20T00:49:04;2.70;;;1.47;;
23449;SDS011;11897;45.438;12.128;2022-11-20T00:51:30;0.97;;;0.87;;
23449;SDS011;11897;45.438;12.128;2022-11-20T00:53:57;1.87;;;1.23;;
23449;SDS011;11897;45.438;12.128;2022-11-20T00:56:25;2.63;;;1.40;;
23449;SDS011;11897;45.438;12.128;2022-11-20T00:58:51;2.30;;;1.20;;
23449;SDS011;11897;45.438;12.128;2022-11-20T01:01:19;2.10;;;1.27;;
23449;SDS011;11897;45.438;12.128;2022-11-20T01:03:47;2.03;;;1.20;;
23449;SDS011;11897;45.438;12.128;2022-11-20T01:06:16;1.60;;;1.07;;
23449;SDS011;11897;45.438;12.128;2022-11-20T01:08:43;2.87;;;1.20;;
23449;SDS011;11897;45.438;12.128;2022-11-20T01:11:11;1.73;;;1.20;;
23449;SDS011;11897;45.438;12.128;2022-11-20T01:13:38;1.60;;;1.23;;
23449;SDS011;11897;45.438;12.128;2022-11-20T01:16:06;2.63;;;1.20;;
23449;SDS011;11897;45.438;12.128;2022-11-20T01:18:33;3.90;;;0.87;;
23449;SDS011;11897;45.438;12.128;2022-11-20T01:21:00;2.13;;;1.17;;
23449;SDS011;11897;45.438;12.128;2022-11-20T01:23:31;0.77;;;0.60;;
23449;SDS011;11897;45.438;12.128;2022-11-20T01:25:59;2.53;;;0.90;;
23449;SDS011;11897;45.438;12.128;2022-11-20T01:28:25;1.20;;;0.90;;
23449;SDS011;11897;45.438;12.128;2022-11-20T01:30:52;0.67;;;0.40;;
23449;SDS011;11897;45.438;12.128;2022-11-20T01:33:18;1.23;;;0.60;;
23449;SDS011;11897;45.438;12.128;2022-11-20T01:35:45;1.43;;;0.77;;
23449;SDS011;11897;45.438;12.128;2022-11-20T01:38:11;0.77;;;0.63;;
23449;SDS011;11897;45.438;12.128;2022-11-20T01:40:39;1.10;;;0.40;;
23449;SDS011;11897;45.438;12.128;2022-11-20T01:43:09;0.80;;;0.57;;
23449;SDS011;11897;45.438;12.128;2022-11-20T01:45:51;0.63;;;0.63;;
23449;SDS011;11897;45.438;12.128;2022-11-20T01:48:19;2.43;;;0.60;;
23449;SDS011;11897;45.438;12.128;2022-11-20T01:50:47;1.03;;;0.60;;
23449;SDS011;11897;45.438;12.128;2022-11-20T01:53:14;1.60;;;0.50;;
23449;SDS011;11897;45.438;12.128;2022-11-20T01:55:45;1.00;;;0.47;;
23449;SDS011;11897;45.438;12.128;2022-11-20T01:58:13;1.23;;;0.53;;
23449;SDS011;11897;45.438;12.128;2022-11-20T02:00:39;0.57;;;0.53;;
23449;SDS011;11897;45.438;12.128;2022-11-20T02:03:07;0.70;;;0.60;;
23449;SDS011;11897;45.438;12.128;2022-11-20T02:05:35;1.00;;;0.50;;
23449;SDS011;11897;45.438;12.128;2022-11-20T02:08:02;0.30;;;0.30;;
23449;SDS011;11897;45.438;12.128;2022-11-20T02:10:29;0.93;;;0.40;;
23449;SDS011;11897;45.438;12.128;2022-11-20T02:12:58;0.50;;;0.50;;
23449;SDS011;11897;45.438;12.128;2022-11-20T02:15:42;0.67;;;0.53;;
23449;SDS011;11897;45.438;12.128;2022-11-20T02:18:10;2.47;;;0.40;;
23449;SDS011;11897;45.438;12.128;2022-11-20T02:20:37;0.67;;;0.30;;
23449;SDS011;11897;45.438;12.128;2022-11-20T02:23:05;1.10;;;0.47;;
23449;SDS011;11897;45.438;12.128;2022-11-20T02:25:37;0.93;;;0.43;;
23449;SDS011;11897;45.438;12.128;2022-11-20T02:28:04;0.50;;;0.37;;
23449;SDS011;11897;45.438;12.128;2022-11-20T02:30:31;0.50;;;0.40;;
23449;SDS011;11897;45.438;12.128;2022-11-20T02:32:58;0.43;;;0.30;;
23449;SDS011;11897;45.438;12.128;2022-11-20T02:35:39;1.00;;;0.43;;
23449;SDS011;11897;45.438;12.128;2022-11-20T02:38:05;2.57;;;0.50;;
23449;SDS011;11897;45.438;12.128;2022-11-20T02:40:32;0.70;;;0.40;;
23449;SDS011;11897;45.438;12.128;2022-11-20T02:43:00;0.87;;;0.60;;
23449;SDS011;11897;45.438;12.128;2022-11-20T02:45:27;1.00;;;0.37;;
23449;SDS011;11897;45.438;12.128;2022-11-20T02:47:53;0.10;;;0.10;;
23449;SDS011;11897;45.438;12.128;2022-11-20T02:50:20;0.47;;;0.40;;
23449;SDS011;11897;45.438;12.128;2022-11-20T02:52:47;0.23;;;0.20;;
23449;SDS011;11897;45.438;12.128;2022-11-20T02:55:13;0.20;;;0.20;;
23449;SDS011;11897;45.438;12.128;2022-11-20T02:57:40;0.30;;;0.30;;
23449;SDS011;11897;45.438;12.128;2022-11-20T03:00:09;0.73;;;0.40;;
23449;SDS011;11897;45.438;12.128;2022-11-20T03:02:35;0.20;;;0.20;;
23449;SDS011;11897;45.438;12.128;2022-11-20T03:05:02;0.70;;;0.50;;
23449;SDS011;11897;45.438;12.128;2022-11-20T03:07:29;0.47;;;0.40;;
23449;SDS011;11897;45.438;12.128;2022-11-20T03:09:55;0.30;;;0.30;;
23449;SDS011;11897;45.438;12.128;2022-11-20T03:12:22;0.47;;;0.47;;
23449;SDS011;11897;45.438;12.128;2022-11-20T03:14:49;0.30;;;0.30;;
23449;SDS011;11897;45.438;12.128;2022-11-20T03:17:17;0.43;;;0.37;;
23449;SDS011;11897;45.438;12.128;2022-11-20T03:19:44;0.30;;;0.30;;
23449;SDS011;11897;45.438;12.128;2022-11-20T03:22:10;0.27;;;0.27;;
23449;SDS011;11897;45.438;12.128;2022-11-20T03:24:37;0.27;;;0.20;;
23449;SDS011;11897;45.438;12.128;2022-11-20T03:27:03;2.00;;;0.30;;
23449;SDS011;11897;45.438;12.128;2022-11-20T03:29:30;0.37;;;0.30;;
23449;SDS011;11897;45.438;12.128;2022-11-20T03:31:57;1.20;;;0.33;;
23449;SDS011;11897;45.438;12.128;2022-11-20T03:34:25;0.80;;;0.20;;
23449;SDS011;11897;45.438;12.128;2022-11-20T03:36:52;0.50;;;0.33;;
23449;SDS011;11897;45.438;12.128;2022-11-20T03:39:18;4.40;;;0.50;;
23449;SDS011;11897;45.438;12.128;2022-11-20T03:41:45;0.30;;;0.30;;
23449;SDS011;11897;45.438;12.128;2022-11-20T03:44:12;0.23;;;0.23;;
23449;SDS011;11897;45.438;12.128;2022-11-20T03:46:38;0.40;;;0.30;;
23449;SDS011;11897;45.438;12.128;2022-11-20T03:49:06;0.33;;;0.30;;
23449;SDS011;11897;45.438;12.128;2022-11-20T03:51:35;0.80;;;0.50;;
23449;SDS011;11897;45.438;12.128;2022-11-20T03:54:02;0.57;;;0.37;;
23449;SDS011;11897;45.438;12.128;2022-11-20T03:56:30;0.77;;;0.40;;
23449;SDS011;11897;45.438;12.128;2022-11-20T03:58:57;0.83;;;0.40;;
23449;SDS011;11897;45.438;12.128;2022-11-20T04:01:25;0.23;;;0.23;;
23449;SDS011;11897;45.438;12.128;2022-11-20T04:03:52;0.20;;;0.20;;
23449;SDS011;11897;45.438;12.128;2022-11-20T04:06:19;0.20;;;0.20;;
23449;SDS011;11897;45.438;12.128;2022-11-20T04:08:47;0.37;;;0.37;;
23449;SDS011;11897;45.438;12.128;2022-11-20T04:11:14;0.20;;;0.20;;
23449;SDS011;11897;45.438;12.128;2022-11-20T04:13:42;0.30;;;0.20;;
23449;SDS011;11897;45.438;12.128;2022-11-20T04:16:09;0.20;;;0.20;;
23449;SDS011;11897;45.438;12.128;2022-11-20T04:18:36;0.43;;;0.40;;
23449;SDS011;11897;45.438;12.128;2022-11-20T04:21:03;0.67;;;0.33;;
23449;SDS011;11897;45.438;12.128;2022-11-20T04:23:29;1.27;;;0.60;;
23449;SDS011;11897;45.438;12.128;2022-11-20T04:26:01;0.70;;;0.40;;
23449;SDS011;11897;45.438;12.128;2022-11-20T04:28:28;0.30;;;0.30;;
23449;SDS011;11897;45.438;12.128;2022-11-20T04:31:00;1.13;;;0.70;;
23449;SDS011;11897;45.438;12.128;2022-11-20T04:33:27;1.07;;;0.50;;
23449;SDS011;11897;45.438;12.128;2022-11-20T04:35:54;0.33;;;0.33;;
23449;SDS011;11897;45.438;12.128;2022-11-20T04:38:20;0.40;;;0.40;;
23449;SDS011;11897;45.438;12.128;2022-11-20T04:40:47;3.37;;;0.80;;
23449;SDS011;11897;45.438;12.128;2022-11-20T04:43:15;1.07;;;0.50;;
23449;SDS011;11897;45.438;12.128;2022-11-20T04:45:41;0.90;;;0.70;;
23449;SDS011;11897;45.438;12.128;2022-11-20T04:48:08;1.33;;;0.83;;
23449;SDS011;11897;45.438;12.128;2022-11-20T04:50:36;0.60;;;0.60;;
23449;SDS011;11897;45.438;12.128;2022-11-20T04:53:05;0.97;;;0.80;;
23449;SDS011;11897;45.438;12.128;2022-11-20T04:55:32;1.00;;;0.77;;
23449;SDS011;11897;45.438;12.128;2022-11-20T04:57:59;0.93;;;0.60;;
23449;SDS011;11897;45.438;12.128;2022-11-20T05:00:27;1.07;;;0.80;;
23449;SDS011;11897;45.438;12.128;2022-11-20T05:02:53;1.73;;;0.90;;
23449;SDS011;11897;45.438;12.128;2022-11-20T05:05:20;1.37;;;0.70;;
23449;SDS011;11897;45.438;12.128;2022-11-20T05:07:46;0.77;;;0.77;;
23449;SDS011;11897;45.438;12.128;2022-11-20T05:10:13;1.70;;;1.03;;
23449;SDS011;11897;45.438;12.128;2022-11-20T05:12:40;1.83;;;0.63;;
23449;SDS011;11897;45.438;12.128;2022-11-20T05:15:07;1.53;;;0.60;;
23449;SDS011;11897;45.438;12.128;2022-11-20T05:17:35;0.87;;;0.70;;
23449;SDS011;11897;45.438;12.128;2022-11-20T05:20:02;1.10;;;0.60;;
23449;SDS011;11897;45.438;12.128;2022-11-20T05:22:28;1.27;;;0.70;;
23449;SDS011;11897;45.438;12.128;2022-11-20T05:24:55;1.20;;;0.60;;
23449;SDS011;11897;45.438;12.128;2022-11-20T05:27:22;0.50;;;0.50;;
23449;SDS011;11897;45.438;12.128;2022-11-20T05:29:48;0.83;;;0.73;;
23449;SDS011;11897;45.438;12.128;2022-11-20T05:32:15;1.70;;;0.60;;
23449;SDS011;11897;45.438;12.128;2022-11-20T05:34:43;1.60;;;0.70;;
23449;SDS011;11897;45.438;12.128;2022-11-20T05:37:09;1.20;;;0.87;;
23449;SDS011;11897;45.438;12.128;2022-11-20T05:39:36;1.00;;;0.90;;
23449;SDS011;11897;45.438;12.128;2022-11-20T05:42:03;1.57;;;0.73;;
23449;SDS011;11897;45.438;12.128;2022-11-20T05:44:46;1.77;;;0.80;;
23449;SDS011;11897;45.438;12.128;2022-11-20T05:47:13;1.97;;;1.00;;
23449;SDS011;11897;45.438;12.128;2022-11-20T05:49:40;1.00;;;0.90;;
23449;SDS011;11897;45.438;12.128;2022-11-20T05:52:07;0.87;;;0.67;;
23449;SDS011;11897;45.438;12.128;2022-11-20T05:54:34;3.70;;;0.93;;
23449;SDS011;11897;45.438;12.128;2022-11-20T05:57:01;1.13;;;0.60;;
23449;SDS011;11897;45.438;12.128;2022-11-20T05:59:27;1.20;;;0.73;;
23449;SDS011;11897;45.438;12.128;2022-11-20T06:01:54;0.80;;;0.80;;
23449;SDS011;11897;45.438;12.128;2022-11-20T06:04:21;1.67;;;1.07;;
23449;SDS011;11897;45.438;12.128;2022-11-20T06:06:47;2.00;;;1.30;;
23449;SDS011;11897;45.438;12.128;2022-11-20T06:09:15;0.97;;;0.70;;
23449;SDS011;11897;45.438;12.128;2022-11-20T06:11:42;2.27;;;1.10;;
23449;SDS011;11897;45.438;12.128;2022-11-20T06:14:08;3.43;;;1.37;;
23449;SDS011;11897;45.438;12.128;2022-11-20T06:16:35;1.70;;;0.90;;
23449;SDS011;11897;45.438;12.128;2022-11-20T06:19:01;2.97;;;0.90;;
23449;SDS011;11897;45.438;12.128;2022-11-20T06:21:28;0.90;;;0.90;;
23449;SDS011;11897;45.438;12.128;2022-11-20T06:23:55;1.50;;;1.00;;
23449;SDS011;11897;45.438;12.128;2022-11-20T06:26:24;1.87;;;0.90;;
23449;SDS011;11897;45.438;12.128;2022-11-20T06:28:51;1.43;;;1.00;;
23449;SDS011;11897;45.438;12.128;2022-11-20T06:31:19;1.93;;;1.20;;
23449;SDS011;11897;45.438;12.128;2022-11-20T06:33:46;2.50;;;1.27;;
23449;SDS011;11897;45.438;12.128;2022-11-20T06:36:13;2.13;;;1.47;;
23449;SDS011;11897;45.438;12.128;2022-11-20T06:38:40;2.07;;;1.20;;
23449;SDS011;11897;45.438;12.128;2022-11-20T06:41:08;1.83;;;1.17;;
23449;SDS011;11897;45.438;12.128;2022-11-20T06:43:38;2.33;;;1.10;;
23449;SDS011;11897;45.438;12.128;2022-11-20T06:46:04;0.90;;;0.70;;
23449;SDS011;11897;45.438;12.128;2022-11-20T06:48:31;2.10;;;0.80;;
23449;SDS011;11897;45.438;12.128;2022-11-20T06:50:58;1.07;;;0.93;;
23449;SDS011;11897;45.438;12.128;2022-11-20T06:53:24;1.77;;;1.03;;
23449;SDS011;11897;45.438;12.128;2022-11-20T06:55:51;1.83;;;1.07;;
23449;SDS011;11897;45.438;12.128;2022-11-20T06:58:18;1.40;;;0.90;;
23449;SDS011;11897;45.438;12.128;2022-11-20T07:00:46;10.60;;;1.20;;
23449;SDS011;11897;45.438;12.128;2022-11-20T07:03:13;2.37;;;1.10;;
23449;SDS011;11897;45.438;12.128;2022-11-20T07:05:40;4.53;;;1.43;;
23449;SDS011;11897;45.438;12.128;2022-11-20T07:08:06;1.43;;;0.83;;
23449;SDS011;11897;45.438;12.128;2022-11-20T07:10:33;3.43;;;0.90;;
23449;SDS011;11897;45.438;12.128;2022-11-20T07:13:00;1.50;;;1.00;;
23449;SDS011;11897;45.438;12.128;2022-11-20T07:15:27;1.60;;;1.13;;
23449;SDS011;11897;45.438;12.128;2022-11-20T07:17:55;3.97;;;0.80;;
23449;SDS011;11897;45.438;12.128;2022-11-20T07:20:21;5.63;;;1.67;;
23449;SDS011;11897;45.438;12.128;2022-11-20T07:22:52;2.40;;;1.50;;
23449;SDS011;11897;45.438;12.128;2022-11-20T07:25:19;1.80;;;1.20;;
23449;SDS011;11897;45.438;12.128;2022-11-20T07:27:46;3.53;;;2.00;;
23449;SDS011;11897;45.438;12.128;2022-11-20T07:32:39;5.23;;;2.50;;
23449;SDS011;11897;45.438;12.128;2022-11-20T07:35:08;2.30;;;1.50;;
23449;SDS011;11897;45.438;12.128;2022-11-20T07:37:35;2.80;;;1.87;;
23449;SDS011;11897;45.438;12.128;2022-11-20T07:40:02;3.53;;;2.07;;
23449;SDS011;11897;45.438;12.128;2022-11-20T07:42:29;1.93;;;1.63;;
23449;SDS011;11897;45.438;12.128;2022-11-20T07:44:56;3.43;;;1.80;;
23449;SDS011;11897;45.438;12.128;2022-11-20T07:47:22;1.93;;;1.40;;
23449;SDS011;11897;45.438;12.128;2022-11-20T07:49:49;3.93;;;1.63;;
23449;SDS011;11897;45.438;12.128;2022-11-20T07:52:17;2.97;;;1.20;;
23449;SDS011;11897;45.438;12.128;2022-11-20T07:54:43;1.60;;;1.30;;
23449;SDS011;11897;45.438;12.128;2022-11-20T07:57:10;2.93;;;2.20;;
23449;SDS011;11897;45.438;12.128;2022-11-20T07:59:37;3.97;;;1.83;;
23449;SDS011;11897;45.438;12.128;2022-11-20T08:02:04;2.70;;;1.60;;
23449;SDS011;11897;45.438;12.128;2022-11-20T08:04:30;2.47;;;1.50;;
23449;SDS011;11897;45.438;12.128;2022-11-20T08:06:58;3.67;;;1.73;;
23449;SDS011;11897;45.438;12.128;2022-11-20T08:09:26;2.53;;;1.90;;
23449;SDS011;11897;45.438;12.128;2022-11-20T08:11:53;3.27;;;1.90;;
23449;SDS011;11897;45.438;12.128;2022-11-20T08:14:37;1.93;;;1.53;;
23449;SDS011;11897;45.438;12.128;2022-11-20T08:17:03;2.27;;;1.43;;
23449;SDS011;11897;45.438;12.128;2022-11-20T08:19:30;1.60;;;1.40;;
23449;SDS011;11897;45.438;12.128;2022-11-20T08:21:57;3.60;;;2.07;;
23449;SDS011;11897;45.438;12.128;2022-11-20T08:24:23;1.50;;;1.20;;
23449;SDS011;11897;45.438;12.128;2022-11-20T08:26:52;2.40;;;1.53;;
23449;SDS011;11897;45.438;12.128;2022-11-20T08:29:19;2.80;;;1.83;;
23449;SDS011;11897;45.438;12.128;2022-11-20T08:31:46;2.77;;;1.43;;
23449;SDS011;11897;45.438;12.128;2022-11-20T08:34:12;1.90;;;1.50;;
23449;SDS011;11897;45.438;12.128;2022-11-20T08:36:39;2.83;;;1.83;;
23449;SDS011;11897;45.438;12.128;2022-11-20T08:39:05;3.63;;;1.40;;
23449;SDS011;11897;45.438;12.128;2022-11-20T08:41:32;1.20;;;1.03;;
23449;SDS011;11897;45.438;12.128;2022-11-20T08:44:01;2.03;;;1.20;;
23449;SDS011;11897;45.438;12.128;2022-11-20T08:46:30;1.37;;;0.93;;
23449;SDS011;11897;45.438;12.128;2022-11-20T08:48:58;2.23;;;1.30;;
23449;SDS011;11897;45.438;12.128;2022-11-20T08:51:24;1.53;;;0.97;;
23449;SDS011;11897;45.438;12.128;2022-11-20T08:53:51;2.33;;;1.10;;
23449;SDS011;11897;45.438;12.128;2022-11-20T08:56:18;2.17;;;1.03;;
23449;SDS011;11897;45.438;12.128;2022-11-20T08:58:44;1.00;;;0.90;;
23449;SDS011;11897;45.438;12.128;2022-11-20T09:01:12;1.63;;;0.90;;
23449;SDS011;11897;45.438;12.128;2022-11-20T09:03:39;1.53;;;1.23;;
23449;SDS011;11897;45.438;12.128;2022-11-20T09:06:07;1.33;;;0.90;;
23449;SDS011;11897;45.438;12.128;2022-11-20T09:08:34;2.23;;;1.17;;
23449;SDS011;11897;45.438;12.128;2022-11-20T09:11:01;2.13;;;1.20;;
23449;SDS011;11897;45.438;12.128;2022-11-20T09:13:28;1.90;;;1.20;;
23449;SDS011;11897;45.438;12.128;2022-11-20T09:15:55;1.20;;;0.80;;
23449;SDS011;11897;45.438;12.128;2022-11-20T09:18:23;2.00;;;1.13;;
23449;SDS011;11897;45.438;12.128;2022-11-20T09:20:50;1.33;;;1.10;;
23449;SDS011;11897;45.438;12.128;2022-11-20T09:23:16;1.13;;;0.90;;
23449;SDS011;11897;45.438;12.128;2022-11-20T09:25:43;1.40;;;1.03;;
23449;SDS011;11897;45.438;12.128;2022-11-20T09:28:10;0.97;;;0.90;;
23449;SDS011;11897;45.438;12.128;2022-11-20T09:30:36;1.83;;;0.90;;
23449;SDS011;11897;45.438;12.128;2022-11-20T09:33:03;1.50;;;1.00;;
23449;SDS011;11897;45.438;12.128;2022-11-20T09:35:31;1.00;;;0.80;;
23449;SDS011;11897;45.438;12.128;2022-11-20T09:37:58;1.47;;;1.00;;
23449;SDS011;11897;45.438;12.128;2022-11-20T09:40:25;5.30;;;1.30;;
23449;SDS011;11897;45.438;12.128;2022-11-20T09:42:54;2.10;;;1.10;;
23449;SDS011;11897;45.438;12.128;2022-11-20T09:45:24;1.10;;;1.00;;
23449;SDS011;11897;45.438;12.128;2022-11-20T09:47:59;1.43;;;0.77;;
23449;SDS011;11897;45.438;12.128;2022-11-20T09:50:32;1.00;;;0.90;;
23449;SDS011;11897;45.438;12.128;2022-11-20T09:53:04;1.83;;;1.20;;
23449;SDS011;11897;45.438;12.128;2022-11-20T09:55:32;0.97;;;0.83;;
23449;SDS011;11897;45.438;12.128;2022-11-20T09:58:00;1.90;;;0.90;;
23449;SDS011;11897;45.438;12.128;2022-11-20T10:00:27;1.50;;;0.53;;
23449;SDS011;11897;45.438;12.128;2022-11-20T10:02:55;1.03;;;0.73;;
23449;SDS011;11897;45.438;12.128;2022-11-20T10:05:23;2.77;;;0.43;;
23449;SDS011;11897;45.438;12.128;2022-11-20T10:07:53;2.10;;;0.80;;
23449;SDS011;11897;45.438;12.128;2022-11-20T10:10:25;0.60;;;0.60;;
23449;SDS011;11897;45.438;12.128;2022-11-20T10:12:58;0.80;;;0.53;;
23449;SDS011;11897;45.438;12.128;2022-11-20T10:15:29;0.20;;;0.20;;
23449;SDS011;11897;45.438;12.128;2022-11-20T10:18:09;1.80;;;0.40;;
23449;SDS011;11897;45.438;12.128;2022-11-20T10:20:40;0.67;;;0.43;;
23449;SDS011;11897;45.438;12.128;2022-11-20T10:25:56;0.77;;;0.30;;
23449;SDS011;11897;45.438;12.128;2022-11-20T10:28:29;0.47;;;0.47;;
23449;SDS011;11897;45.438;12.128;2022-11-20T10:30:57;0.50;;;0.40;;
23449;SDS011;11897;45.438;12.128;2022-11-20T10:33:26;0.23;;;0.20;;
23449;SDS011;11897;45.438;12.128;2022-11-20T10:35:55;0.60;;;0.30;;
23449;SDS011;11897;45.438;12.128;2022-11-20T10:38:29;0.50;;;0.30;;
23449;SDS011;11897;45.438;12.128;2022-11-20T10:40:59;1.23;;;0.33;;
23449;SDS011;11897;45.438;12.128;2022-11-20T10:43:41;0.40;;;0.30;;
23449;SDS011;11897;45.438;12.128;2022-11-20T10:46:08;0.20;;;0.20;;
23449;SDS011;11897;45.438;12.128;2022-11-20T10:48:43;0.93;;;0.33;;
23449;SDS011;11897;45.438;12.128;2022-11-20T10:51:15;0.20;;;0.20;;
23449;SDS011;11897;45.438;12.128;2022-11-20T10:53:51;0.40;;;0.37;;
23449;SDS011;11897;45.438;12.128;2022-11-20T10:56:22;0.30;;;0.30;;
23449;SDS011;11897;45.438;12.128;2022-11-20T10:59:02;1.67;;;0.20;;
23449;SDS011;11897;45.438;12.128;2022-11-20T11:01:29;0.47;;;0.27;;
23449;SDS011;11897;45.438;12.128;2022-11-20T11:03:55;0.67;;;0.50;;
23449;SDS011;11897;45.438;12.128;2022-11-20T11:06:25;0.13;;;0.13;;
23449;SDS011;11897;45.438;12.128;2022-11-20T11:08:55;1.33;;;0.83;;
23449;SDS011;11897;45.438;12.128;2022-11-20T11:11:25;0.30;;;0.17;;
23449;SDS011;11897;45.438;12.128;2022-11-20T11:13:53;0.40;;;0.20;;
23449;SDS011;11897;45.438;12.128;2022-11-20T11:16:30;0.37;;;0.20;;
23449;SDS011;11897;45.438;12.128;2022-11-20T11:19:03;0.30;;;0.20;;
23449;SDS011;11897;45.438;12.128;2022-11-20T11:21:29;0.30;;;0.20;;
23449;SDS011;11897;45.438;12.128;2022-11-20T11:23:57;0.30;;;0.30;;
23449;SDS011;11897;45.438;12.128;2022-11-20T11:26:26;0.63;;;0.40;;
23449;SDS011;11897;45.438;12.128;2022-11-20T11:28:54;0.50;;;0.50;;
23449;SDS011;11897;45.438;12.128;2022-11-20T11:31:25;0.43;;;0.37;;
23449;SDS011;11897;45.438;12.128;2022-11-20T11:33:51;0.30;;;0.30;;
23449;SDS011;11897;45.438;12.128;2022-11-20T11:36:19;1.23;;;0.40;;
23449;SDS011;11897;45.438;12.128;2022-11-20T11:38:48;0.67;;;0.40;;
23449;SDS011;11897;45.438;12.128;2022-11-20T11:41:18;0.40;;;0.40;;
23449;SDS011;11897;45.438;12.128;2022-11-20T11:43:51;0.40;;;0.40;;
23449;SDS011;11897;45.438;12.128;2022-11-20T11:46:36;0.50;;;0.40;;
23449;SDS011;11897;45.438;12.128;2022-11-20T11:49:11;0.93;;;0.60;;
23449;SDS011;11897;45.438;12.128;2022-11-20T11:51:39;0.30;;;0.30;;
23449;SDS011;11897;45.438;12.128;2022-11-20T11:54:12;0.57;;;0.47;;
23449;SDS011;11897;45.438;12.128;2022-11-20T11:56:41;0.30;;;0.30;;
23449;SDS011;11897;45.438;12.128;2022-11-20T11:59:09;0.30;;;0.30;;
23449;SDS011;11897;45.438;12.128;2022-11-20T12:01:41;0.67;;;0.40;;
23449;SDS011;11897;45.438;12.128;2022-11-20T12:04:11;0.43;;;0.40;;
23449;SDS011;11897;45.438;12.128;2022-11-20T12:06:42;2.13;;;0.27;;
23449;SDS011;11897;45.438;12.128;2022-11-20T12:09:09;0.23;;;0.23;;
23449;SDS011;11897;45.438;12.128;2022-11-20T12:11:37;0.60;;;0.57;;
23449;SDS011;11897;45.438;12.128;2022-11-20T12:14:11;0.37;;;0.27;;
23449;SDS011;11897;45.438;12.128;2022-11-20T12:16:40;0.43;;;0.43;;
23449;SDS011;11897;45.438;12.128;2022-11-20T12:19:08;0.37;;;0.37;;
23449;SDS011;11897;45.438;12.128;2022-11-20T12:21:38;0.30;;;0.30;;
23449;SDS011;11897;45.438;12.128;2022-11-20T12:24:15;1.27;;;0.60;;
23449;SDS011;11897;45.438;12.128;2022-11-20T12:26:54;0.73;;;0.60;;
23449;SDS011;11897;45.438;12.128;2022-11-20T12:29:27;0.83;;;0.50;;
23449;SDS011;11897;45.438;12.128;2022-11-20T12:34:42;0.70;;;0.50;;
23449;SDS011;11897;45.438;12.128;2022-11-20T12:37:12;1.08;;;0.52;;
23449;SDS011;11897;45.438;12.128;2022-11-20T12:39:40;1.48;;;0.88;;
23449;SDS011;11897;45.438;12.128;2022-11-20T12:50:48;1.00;;;0.43;;
23449;SDS011;11897;45.438;12.128;2022-11-20T12:53:22;0.25;;;0.25;;
23449;SDS011;11897;45.438;12.128;2022-11-20T12:55:53;0.20;;;0.20;;
23449;SDS011;11897;45.438;12.128;2022-11-20T12:58:24;0.57;;;0.50;;
23449;SDS011;11897;45.438;12.128;2022-11-20T13:00:55;0.63;;;0.63;;
23449;SDS011;11897;45.438;12.128;2022-11-20T13:03:27;0.57;;;0.40;;
23449;SDS011;11897;45.438;12.128;2022-11-20T13:06:01;1.57;;;0.50;;
23449;SDS011;11897;45.438;12.128;2022-11-20T13:08:32;0.90;;;0.57;;
23449;SDS011;11897;45.438;12.128;2022-11-20T13:11:00;0.30;;;0.20;;
23449;SDS011;11897;45.438;12.128;2022-11-20T13:13:30;0.20;;;0.20;;
23449;SDS011;11897;45.438;12.128;2022-11-20T13:15:58;1.13;;;0.73;;
23449;SDS011;11897;45.438;12.128;2022-11-20T13:18:26;0.90;;;0.40;;
23449;SDS011;11897;45.438;12.128;2022-11-20T13:20:53;1.20;;;0.90;;
23449;SDS011;11897;45.438;12.128;2022-11-20T13:23:24;1.80;;;0.80;;
23449;SDS011;11897;45.438;12.128;2022-11-20T13:26:02;2.10;;;0.60;;
23449;SDS011;11897;45.438;12.128;2022-11-20T13:28:29;0.60;;;0.60;;
23449;SDS011;11897;45.438;12.128;2022-11-20T13:30:57;0.63;;;0.53;;
23449;SDS011;11897;45.438;12.128;2022-11-20T13:33:25;0.70;;;0.30;;
23449;SDS011;11897;45.438;12.128;2022-11-20T13:35:57;0.53;;;0.37;;
23449;SDS011;11897;45.438;12.128;2022-11-20T13:38:25;0.53;;;0.43;;
23449;SDS011;11897;45.438;12.128;2022-11-20T13:40:53;0.33;;;0.30;;
23449;SDS011;11897;45.438;12.128;2022-11-20T13:43:26;0.63;;;0.33;;
23449;SDS011;11897;45.438;12.128;2022-11-20T13:45:54;0.30;;;0.27;;
23449;SDS011;11897;45.438;12.128;2022-11-20T13:48:22;0.20;;;0.20;;
23449;SDS011;11897;45.438;12.128;2022-11-20T13:50:54;0.53;;;0.40;;
23449;SDS011;11897;45.438;12.128;2022-11-20T13:53:28;1.33;;;0.50;;
23449;SDS011;11897;45.438;12.128;2022-11-20T13:55:59;0.60;;;0.47;;
23449;SDS011;11897;45.438;12.128;2022-11-20T13:58:29;0.30;;;0.20;;
23449;SDS011;11897;45.438;12.128;2022-11-20T14:01:00;0.87;;;0.57;;
23449;SDS011;11897;45.438;12.128;2022-11-20T14:03:28;1.23;;;0.90;;
23449;SDS011;11897;45.438;12.128;2022-11-20T14:05:57;0.53;;;0.30;;
23449;SDS011;11897;45.438;12.128;2022-11-20T14:08:31;2.10;;;0.50;;
23449;SDS011;11897;45.438;12.128;2022-11-20T14:11:04;0.57;;;0.30;;
23449;SDS011;11897;45.438;12.128;2022-11-20T14:13:30;0.40;;;0.30;;
23449;SDS011;11897;45.438;12.128;2022-11-20T14:15:57;1.17;;;0.63;;
23449;SDS011;11897;45.438;12.128;2022-11-20T14:18:25;0.40;;;0.40;;
23449;SDS011;11897;45.438;12.128;2022-11-20T14:20:52;1.50;;;0.57;;
23449;SDS011;11897;45.438;12.128;2022-11-20T14:23:29;0.20;;;0.20;;
23449;SDS011;11897;45.438;12.128;2022-11-20T14:25:55;0.50;;;0.30;;
23449;SDS011;11897;45.438;12.128;2022-11-20T14:28:24;2.47;;;0.47;;
23449;SDS011;11897;45.438;12.128;2022-11-20T14:30:52;0.40;;;0.37;;
23449;SDS011;11897;45.438;12.128;2022-11-20T14:33:20;1.17;;;0.40;;
23449;SDS011;11897;45.438;12.128;2022-11-20T14:35:50;0.60;;;0.30;;
23449;SDS011;11897;45.438;12.128;2022-11-20T14:38:18;0.20;;;0.20;;
23449;SDS011;11897;45.438;12.128;2022-11-20T14:40:47;0.53;;;0.50;;
23449;SDS011;11897;45.438;12.128;2022-11-20T14:43:17;0.67;;;0.40;;
23449;SDS011;11897;45.438;12.128;2022-11-20T14:45:44;0.63;;;0.53;;
23449;SDS011;11897;45.438;12.128;2022-11-20T14:48:12;0.90;;;0.37;;
23449;SDS011;11897;45.438;12.128;2022-11-20T14:50:39;0.50;;;0.50;;
23449;SDS011;11897;45.438;12.128;2022-11-20T14:53:06;0.67;;;0.47;;
23449;SDS011;11897;45.438;12.128;2022-11-20T14:55:33;0.30;;;0.20;;